Airfield :
LOGIN :

Register | Disclaimer

   EN    FR    IT 

 










Legend :    VFR   Marginal VFR   IFR   Intensive IFR   Very Intensive IFR
Visi :
Ceiling :
>= 8 km
>= 3000ft
5 to 8 km
1000 to 3000 ft
1500m to 5 km
500 to 1000 ft
800 to 1500m
200 to 500 ft
< 800m
< 200 ft
Symbols :   Thunderstorms  Fog  Heavy snow  Heavy precipitations  Wind > 20 kt
SIGMETs :     Misc.  Thunderstorms  Icing  Turbulence  Mountain Waves  Volcanic Ashes







- Airport Elevation : 288 ft
- IATA code : BZZ


EGVN - RAF Brize Norton

CURRENT METAR :
  • 121550Z 14012KT 9999 FEW022 BKN033 06/01 Q1019 BLU NOSIG

EXPIRED METARs :
  • 121450Z 15010KT 9999 FEW022 BKN038 07/02 Q1019 BLU NOSIG
  • 121350Z 13009KT 9999 FEW018 SCT035 07/04 Q1019 NOSIG
  • 121250Z 14010KT 9999 FEW018 BKN038 07/05 Q1020 NOSIG

TAF TAF EGVN
Valid from the 12 at 15:00 until the 13 at 15:00 UTC


121339Z 1215/1315 13010KT 9999 SCT040
PROB30
TEMPO 1300/1310 SCT016
No reported NOTAMs for that airfield.



MET'MAP, your aeronautical weather chart ! - Copyright ORBIFLY December 2007 - Disclaimer

ORBIFLY MET'MAP TEAM :

Programming & Development : Alexandra Zaïnal
Concept & Development : Baudouin d'Aumeries
Co-Development & Prog : Marc-Olivier Méhu
Technical & hardware support : Manuel Goepfert

Contact : metmap@orbifly.com




SOURCES & CREDITS :

   NOAA